Time;durP1;ratioP1;P1;durP2;ratioP2;P2;SDS_P1;SDS_P2;PMS_P1;PMS_P2;Temp;Humidity;BMP_temperature;BMP_pressure;BME280_temperature;BME280_humidity;BME280_pressure;Samples;Min_cycle;Max_cycle;Signal;HPM_P1;HPM_P2
2022/11/22 00:01:17;;;;;;;1.73;1.23;;;;;;;7.21;100.00;98139.31;5032290;28;20871;-56
2022/11/22 00:03:44;;;;;;;4.43;1.20;;;;;;;7.41;100.00;98139.19;5040735;28;20464;-57
2022/11/22 00:06:10;;;;;;;0.40;0.40;;;;;;;7.42;100.00;98129.47;5038345;28;20467;-57
2022/11/22 00:08:36;;;;;;;1.07;1.00;;;;;;;7.45;100.00;98118.75;5042389;28;20452;-56
2022/11/22 00:11:03;;;;;;;1.20;0.60;;;;;;;7.28;100.00;98124.03;5040366;28;21053;-57
2022/11/22 00:13:29;;;;;;;0.40;0.40;;;;;;;7.23;100.00;98110.19;5035159;28;20940;-56
2022/11/22 00:16:04;;;;;;;4.53;1.07;;;;;;;7.32;100.00;98104.44;5037126;28;21008;-56
2022/11/22 00:18:31;;;;;;;1.37;1.13;;;;;;;7.59;100.00;98104.81;5042283;28;20470;-57
2022/11/22 00:21:04;;;;;;;0.40;0.40;;;;;;;7.43;100.00;98102.13;5041952;28;20481;-56
2022/11/22 00:23:30;;;;;;;0.97;0.87;;;;;;;7.69;100.00;98096.34;5041684;28;20458;-57
2022/11/22 00:25:57;;;;;;;0.67;0.67;;;;;;;7.59;100.00;98099.53;5042244;28;20496;-57
2022/11/22 00:28:23;;;;;;;1.00;0.90;;;;;;;7.39;100.00;98103.19;5035607;28;20454;-56
2022/11/22 00:30:49;;;;;;;1.33;1.23;;;;;;;7.49;100.00;98098.28;5034860;28;20929;-56
2022/11/22 00:33:16;;;;;;;1.37;0.93;;;;;;;7.83;100.00;98100.91;5041341;28;20502;-56
2022/11/22 00:35:44;;;;;;;0.90;0.90;;;;;;;7.73;100.00;98105.81;5041832;28;20499;-57
2022/11/22 00:38:11;;;;;;;1.53;0.63;;;;;;;7.73;100.00;98107.59;5036456;28;20512;-57
2022/11/22 00:40:37;;;;;;;0.70;0.70;;;;;;;7.66;100.00;98098.25;5035097;28;20451;-57
2022/11/22 00:43:03;;;;;;;5.70;0.60;;;;;;;7.72;100.00;98101.47;5040918;28;20584;-56
2022/11/22 00:45:30;;;;;;;0.80;0.50;;;;;;;7.99;100.00;98103.59;5041831;28;20466;-56
2022/11/22 00:47:56;;;;;;;2.40;0.60;;;;;;;7.68;100.00;98112.28;5036625;28;20450;-57
2022/11/22 00:50:23;;;;;;;0.67;0.63;;;;;;;7.63;100.00;98107.22;5035161;28;20459;-57
2022/11/22 00:52:49;;;;;;;0.90;0.90;;;;;;;7.75;100.00;98102.22;5040913;28;20920;-57
2022/11/22 00:55:15;;;;;;;0.40;0.40;;;;;;;7.87;100.00;98117.44;5041648;28;20501;-56
2022/11/22 00:57:42;;;;;;;1.07;0.90;;;;;;;7.99;100.00;98128.25;5036345;28;20467;-56
2022/11/22 01:00:09;;;;;;;0.33;0.30;;;;;;;8.01;100.00;98114.94;5035452;28;20448;-57
2022/11/22 01:02:35;;;;;;;0.63;0.63;;;;;;;7.95;100.00;98115.28;5027284;28;20472;-57
2022/11/22 01:05:02;;;;;;;2.10;2.00;;;;;;;8.09;100.00;98111.88;5045177;28;20457;-57
2022/11/22 01:07:29;;;;;;;0.43;0.40;;;;;;;8.12;100.00;98125.81;5028014;28;20463;-56
2022/11/22 01:09:55;;;;;;;1.37;0.80;;;;;;;8.22;100.00;98123.50;5045596;28;20918;-57
2022/11/22 01:12:21;;;;;;;0.67;0.67;;;;;;;8.20;100.00;98122.72;5041271;28;20532;-56
2022/11/22 01:14:48;;;;;;;1.87;1.13;;;;;;;8.13;100.00;98121.38;5038711;28;20490;-57
2022/11/22 01:17:14;;;;;;;3.80;0.80;;;;;;;8.11;100.00;98125.88;5042888;28;20455;-57
2022/11/22 01:19:41;;;;;;;2.10;2.00;;;;;;;8.12;100.00;98135.53;5045488;28;20906;-56
2022/11/22 01:22:07;;;;;;;1.30;1.20;;;;;;;8.15;100.00;98144.16;5041943;28;20918;-57
2022/11/22 01:24:34;;;;;;;1.07;0.90;;;;;;;8.14;100.00;98157.47;5038385;28;20458;-57
2022/11/22 01:27:00;;;;;;;0.80;0.80;;;;;;;8.15;100.00;98157.38;5042154;28;20458;-57
2022/11/22 01:29:26;;;;;;;0.90;0.90;;;;;;;8.14;100.00;98163.63;5045399;28;20546;-57
2022/11/22 01:31:54;;;;;;;0.83;0.77;;;;;;;8.09;100.00;98159.50;5023468;28;20598;-56
2022/11/22 01:34:20;;;;;;;1.40;1.00;;;;;;;8.14;100.00;98146.88;5031779;28;20494;-57
2022/11/22 01:36:47;;;;;;;0.53;0.47;;;;;;;8.19;100.00;98163.34;5041900;28;20900;-57
2022/11/22 01:39:14;;;;;;;5.87;2.10;;;;;;;8.08;100.00;98168.34;5044981;28;20456;-57
2022/11/22 01:41:40;;;;;;;0.83;0.83;;;;;;;7.99;100.00;98169.72;5041430;28;20520;-56
2022/11/22 01:44:40;;;;;;;1.20;1.00;;;;;;;7.95;100.00;98168.19;5020636;28;20455;-55
2022/11/22 01:47:18;;;;;;;1.47;0.97;;;;;;;7.82;100.00;98160.03;5019462;28;20474;-56
2022/11/22 01:49:45;;;;;;;1.20;0.70;;;;;;;7.85;100.00;98169.59;5041343;28;20872;-56
2022/11/22 01:52:20;;;;;;;0.40;0.30;;;;;;;7.74;100.00;98170.13;5044682;28;20518;-56
2022/11/22 01:54:51;;;;;;;0.30;0.20;;;;;;;7.63;100.00;98181.25;5042419;28;20520;-55
2022/11/22 01:57:22;;;;;;;0.97;0.80;;;;;;;7.57;100.00;98183.34;5037731;28;20897;-55
2022/11/22 01:59:55;;;;;;;2.10;1.33;;;;;;;7.65;100.00;98184.66;5038223;28;20933;-55
2022/11/22 02:02:21;;;;;;;2.50;1.33;;;;;;;8.00;100.00;98188.16;5031493;28;20474;-56
2022/11/22 02:04:51;;;;;;;1.33;1.27;;;;;;;7.82;100.00;98186.47;5037570;28;20455;-55
2022/11/22 02:07:24;;;;;;;1.07;1.00;;;;;;;7.85;100.00;98191.59;5046972;28;20469;-56
2022/11/22 02:09:52;;;;;;;3.30;0.90;;;;;;;7.69;100.00;98182.75;5037827;28;20455;-56
2022/11/22 02:12:25;;;;;;;0.57;0.50;;;;;;;7.73;100.00;98176.34;5041974;28;20529;-55
2022/11/22 02:14:52;;;;;;;0.37;0.27;;;;;;;7.60;100.00;98170.81;5043128;28;20967;-56
2022/11/22 02:17:18;;;;;;;0.47;0.40;;;;;;;7.55;100.00;98172.88;5041045;28;20463;-56
2022/11/22 02:19:47;;;;;;;0.87;0.87;;;;;;;7.62;100.00;98181.31;5037737;28;20454;-56
2022/11/22 02:22:54;;;;;;;3.80;0.60;;;;;;;7.88;100.00;98177.34;5040294;28;20540;-56
2022/11/22 02:25:36;;;;;;;0.50;0.50;;;;;;;7.77;100.00;98190.25;5030215;28;20516;-56
2022/11/22 02:28:03;;;;;;;0.40;0.30;;;;;;;7.82;100.00;98189.13;5037315;28;20457;-56
2022/11/22 02:30:30;;;;;;;1.00;0.50;;;;;;;7.68;100.00;98208.31;5038990;28;20899;-56
2022/11/22 02:32:56;;;;;;;0.67;0.40;;;;;;;7.62;100.00;98205.13;5018533;28;20509;-56
2022/11/22 02:35:28;;;;;;;0.30;0.30;;;;;;;7.50;100.00;98203.09;5042214;28;20497;-55
2022/11/22 02:38:06;;;;;;;0.40;0.33;;;;;;;7.46;100.00;98205.03;5036685;28;20462;-56
2022/11/22 02:40:41;;;;;;;3.50;1.10;;;;;;;7.39;100.00;98203.59;5037081;28;20451;-55
2022/11/22 02:43:12;;;;;;;0.93;0.93;;;;;;;7.37;100.00;98194.91;5042093;28;20490;-56
2022/11/22 02:45:38;;;;;;;2.30;1.37;;;;;;;7.46;100.00;98194.47;5043586;28;20826;-56
2022/11/22 02:48:11;;;;;;;0.90;0.80;;;;;;;7.41;100.00;98189.41;5039457;28;20546;-56
2022/11/22 02:50:38;;;;;;;0.43;0.40;;;;;;;7.31;100.00;98201.34;5037112;28;20525;-55
2022/11/22 02:53:06;;;;;;;0.30;0.20;;;;;;;7.20;100.00;98208.09;5039934;28;21024;-55
2022/11/22 02:55:33;;;;;;;12.20;1.03;;;;;;;7.10;100.00;98210.31;5043428;28;20894;-56
2022/11/22 02:57:59;;;;;;;1.20;0.40;;;;;;;7.18;100.00;98216.09;5040580;28;20455;-56
2022/11/22 03:00:26;;;;;;;0.67;0.67;;;;;;;7.06;100.00;98217.53;5036660;28;21025;-55
2022/11/22 03:02:52;;;;;;;0.93;0.93;;;;;;;6.87;100.00;98215.84;5026614;28;20468;-56
2022/11/22 03:05:19;;;;;;;2.00;1.40;;;;;;;6.94;100.00;98211.97;5043441;28;20447;-55
2022/11/22 03:07:45;;;;;;;3.67;2.67;;;;;;;6.95;100.00;98227.75;5025573;28;20460;-56
2022/11/22 03:10:11;;;;;;;0.60;0.60;;;;;;;6.93;100.00;98226.13;5043270;28;20455;-55
2022/11/22 03:12:38;;;;;;;0.80;0.80;;;;;;;6.92;100.00;98229.69;5041333;28;20818;-56
2022/11/22 03:15:05;;;;;;;0.60;0.60;;;;;;;6.89;100.00;98233.34;5036763;28;20540;-56
2022/11/22 03:17:31;;;;;;;0.30;0.23;;;;;;;6.81;100.00;98228.41;5038027;28;20455;-56
2022/11/22 03:19:57;;;;;;;3.53;0.93;;;;;;;6.68;100.00;98224.63;5043122;28;20464;-55
2022/11/22 03:22:24;;;;;;;0.60;0.50;;;;;;;6.61;100.00;98230.25;5041338;28;20471;-56
2022/11/22 03:24:50;;;;;;;0.57;0.53;;;;;;;6.49;100.00;98229.88;5035914;28;20940;-56
2022/11/22 03:27:17;;;;;;;0.40;0.30;;;;;;;6.52;100.00;98236.81;5037517;28;20455;-56
2022/11/22 03:29:43;;;;;;;4.93;1.03;;;;;;;6.60;100.00;98239.09;5042833;28;20539;-56
2022/11/22 03:32:10;;;;;;;0.77;0.77;;;;;;;6.42;100.00;98238.13;5018008;28;20484;-54
2022/11/22 03:34:37;;;;;;;1.40;1.30;;;;;;;6.47;100.00;98238.81;5041389;28;20456;-55
2022/11/22 03:37:03;;;;;;;2.20;1.43;;;;;;;6.61;100.00;98240.81;5041488;28;20462;-56
2022/11/22 03:39:29;;;;;;;0.37;0.30;;;;;;;6.45;100.00;98246.78;5035986;28;20461;-55
2022/11/22 03:41:56;;;;;;;0.50;0.50;;;;;;;6.43;100.00;98245.97;5037267;28;20510;-54
2022/11/22 03:44:23;;;;;;;0.90;0.90;;;;;;;6.46;100.00;98252.94;5042598;28;21162;-55
2022/11/22 03:46:49;;;;;;;15.47;1.00;;;;;;;6.41;100.00;98258.38;5041068;28;20451;-54
2022/11/22 03:49:16;;;;;;;1.80;1.07;;;;;;;6.16;100.00;98249.84;5035367;28;21019;-55
2022/11/22 03:51:42;;;;;;;1.10;1.00;;;;;;;5.95;100.00;98254.28;5037693;28;20479;-59
2022/11/22 03:54:09;;;;;;;0.60;0.60;;;;;;;6.09;100.00;98244.00;5042426;28;20451;-57
2022/11/22 03:56:35;;;;;;;0.47;0.43;;;;;;;6.03;100.00;98243.38;5041001;28;20494;-57
2022/11/22 03:59:02;;;;;;;0.60;0.60;;;;;;;6.30;100.00;98243.97;5030437;28;20459;-57
2022/11/22 04:01:28;;;;;;;0.80;0.80;;;;;;;6.20;100.00;98243.53;5030732;28;20476;-56
2022/11/22 04:03:55;;;;;;;1.37;1.10;;;;;;;6.15;100.00;98246.34;5034905;28;20455;-57
2022/11/22 04:06:21;;;;;;;0.77;0.77;;;;;;;6.07;100.00;98252.91;5031642;28;20530;-56
2022/11/22 04:08:48;;;;;;;0.40;0.33;;;;;;;5.92;100.00;98249.13;5034372;28;20450;-57
2022/11/22 04:11:14;;;;;;;0.83;0.83;;;;;;;5.80;100.00;98260.16;5035733;28;20957;-56
2022/11/22 04:16:25;;;;;;;0.97;0.70;;;;;;;5.77;100.00;98257.66;5042219;28;20620;-57
2022/11/22 04:18:51;;;;;;;0.40;0.37;;;;;;;5.56;100.00;98248.88;5037488;28;20451;-57
2022/11/22 04:21:33;;;;;;;2.60;0.70;;;;;;;5.49;100.00;98247.41;5035022;28;20492;-56
2022/11/22 04:26:53;;;;;;;0.30;0.20;;;;;;;5.49;100.00;98250.91;5024968;28;20447;-56
2022/11/22 04:29:20;;;;;;;1.30;1.20;;;;;;;5.41;100.00;98242.44;5035288;28;20546;-57
2022/11/22 04:34:34;;;;;;;0.50;0.50;;;;;;;5.21;100.00;98248.53;5041675;28;20451;-57
2022/11/22 04:37:01;;;;;;;0.90;0.90;;;;;;;5.32;100.00;98255.97;5039308;28;21082;-56
2022/11/22 04:39:28;;;;;;;0.80;0.50;;;;;;;5.21;100.00;98253.81;5037538;28;20540;-57
2022/11/22 04:44:45;;;;;;;1.90;1.33;;;;;;;5.23;100.00;98264.28;5008693;28;20512;-56
2022/11/22 04:53:01;;;;;;;1.10;0.30;;;;;;;5.29;100.00;98275.41;5030129;28;20544;-56
2022/11/22 04:55:27;;;;;;;0.73;0.73;;;;;;;5.25;100.00;98283.50;5038671;28;20487;-57
2022/11/22 04:57:54;;;;;;;2.83;1.60;;;;;;;5.24;100.00;98300.22;5044165;28;20475;-56
2022/11/22 05:00:29;;;;;;;1.43;0.40;;;;;;;5.35;100.00;98290.13;5037168;28;20958;-56
2022/11/22 05:02:57;;;;;;;6.33;0.93;;;;;;;5.42;100.00;98299.47;5028780;28;20471;-56
2022/11/22 05:05:24;;;;;;;1.30;1.20;;;;;;;5.55;100.00;98308.59;5027778;28;20452;-56
2022/11/22 05:07:51;;;;;;;2.17;1.33;;;;;;;5.47;100.00;98308.06;5028021;28;20554;-56
2022/11/22 05:10:17;;;;;;;1.00;1.00;;;;;;;5.50;100.00;98305.31;5028249;28;20456;-56
2022/11/22 05:12:51;;;;;;;6.93;1.27;;;;;;;5.42;100.00;98310.03;5028891;28;20562;-56
2022/11/22 05:15:18;;;;;;;0.70;0.30;;;;;;;5.44;100.00;98296.78;5039403;28;20494;-57
2022/11/22 05:17:44;;;;;;;2.30;0.87;;;;;;;5.47;100.00;98294.88;5038830;28;20458;-56
2022/11/22 05:20:11;;;;;;;0.40;0.30;;;;;;;5.45;100.00;98291.44;5045037;28;20448;-57
2022/11/22 05:25:22;;;;;;;0.50;0.50;;;;;;;5.49;100.00;98303.59;5042140;28;20929;-56
2022/11/22 05:27:54;;;;;;;0.40;0.40;;;;;;;5.52;100.00;98295.56;5038310;28;20944;-56
2022/11/22 05:30:20;;;;;;;5.83;0.93;;;;;;;5.64;100.00;98302.97;5041066;28;20819;-56
2022/11/22 05:32:46;;;;;;;0.40;0.30;;;;;;;6.02;100.00;98308.44;5020156;28;20541;-56
2022/11/22 05:35:13;;;;;;;0.87;0.60;;;;;;;6.01;100.00;98312.00;5042808;28;20950;-57
2022/11/22 05:37:39;;;;;;;1.83;1.33;;;;;;;6.04;100.00;98316.31;5038385;28;20589;-55
2022/11/22 05:40:06;;;;;;;7.60;0.93;;;;;;;6.06;100.00;98320.59;5040700;28;20459;-57
2022/11/22 05:42:33;;;;;;;2.77;0.80;;;;;;;6.15;100.00;98317.56;5044821;28;20491;-56
2022/11/22 05:44:59;;;;;;;2.80;2.00;;;;;;;6.28;100.00;98312.63;5042639;28;20758;-56
2022/11/22 05:47:26;;;;;;;12.47;2.63;;;;;;;6.50;100.00;98317.84;5037908;28;20455;-57
2022/11/22 05:49:52;;;;;;;2.20;1.50;;;;;;;6.64;100.00;98323.34;5040583;28;20452;-57
2022/11/22 05:52:18;;;;;;;1.33;1.13;;;;;;;6.93;100.00;98331.75;5044746;28;20475;-57
2022/11/22 05:54:45;;;;;;;1.07;0.70;;;;;;;6.85;100.00;98334.72;5042202;28;20454;-58
2022/11/22 05:57:11;;;;;;;0.63;0.63;;;;;;;6.83;100.00;98342.72;5037390;28;20542;-58
2022/11/22 05:59:38;;;;;;;2.67;0.80;;;;;;;7.06;100.00;98338.19;5022168;28;20455;-57
2022/11/22 06:02:09;;;;;;;2.00;1.90;;;;;;;7.14;100.00;98341.34;5032521;28;21041;-55
2022/11/22 06:04:36;;;;;;;1.13;1.03;;;;;;;7.22;100.00;98344.47;5043891;28;20509;-54
2022/11/22 06:07:02;;;;;;;4.77;0.87;;;;;;;7.32;100.00;98342.28;5027521;28;20534;-55
2022/11/22 06:09:35;;;;;;;3.43;1.43;;;;;;;7.41;100.00;98348.00;5044289;28;20474;-56
2022/11/22 06:12:02;;;;;;;11.20;1.83;;;;;;;7.33;100.00;98344.84;5024462;28;20991;-57
2022/11/22 06:14:29;;;;;;;1.87;1.57;;;;;;;7.51;100.00;98347.53;5037325;28;20485;-57
2022/11/22 06:16:55;;;;;;;7.20;0.90;;;;;;;7.49;100.00;98360.81;5043604;28;20557;-56
2022/11/22 06:19:21;;;;;;;2.10;1.90;;;;;;;7.46;100.00;98360.13;5044528;28;20520;-55
2022/11/22 06:21:48;;;;;;;7.40;1.50;;;;;;;7.48;100.00;98360.91;5037824;28;20478;-55
2022/11/22 06:24:14;;;;;;;0.47;0.40;;;;;;;7.53;100.00;98372.09;5037133;28;20995;-55
2022/11/22 06:26:41;;;;;;;0.67;0.63;;;;;;;7.84;100.00;98367.09;5043503;28;20447;-55
2022/11/22 06:29:07;;;;;;;1.53;1.10;;;;;;;7.69;100.00;98379.25;5043656;28;20455;-56
2022/11/22 06:31:34;;;;;;;9.60;1.20;;;;;;;7.65;100.00;98388.25;5025402;28;20503;-55
2022/11/22 06:34:00;;;;;;;0.50;0.30;;;;;;;7.69;100.00;98387.19;5025431;28;20447;-56
2022/11/22 06:36:29;;;;;;;0.80;0.80;;;;;;;7.78;100.00;98388.53;5042926;28;20495;-55
2022/11/22 06:38:56;;;;;;;0.30;0.30;;;;;;;7.71;100.00;98392.41;5043615;28;20580;-55
2022/11/22 06:41:25;;;;;;;7.43;0.97;;;;;;;7.60;100.00;98392.06;5038779;28;20474;-55
2022/11/22 06:43:54;;;;;;;0.50;0.40;;;;;;;7.70;100.00;98388.06;5037184;28;20456;-55
2022/11/22 06:46:22;;;;;;;0.30;0.20;;;;;;;7.82;100.00;98392.75;5041485;28;20873;-56
2022/11/22 06:48:49;;;;;;;6.53;0.33;;;;;;;7.86;100.00;98393.47;5043657;28;20454;-56
2022/11/22 06:51:21;;;;;;;0.40;0.30;;;;;;;7.82;100.00;98403.34;5039723;28;20603;-55
2022/11/22 06:53:49;;;;;;;0.40;0.30;;;;;;;7.75;100.00;98401.91;5036872;28;20451;-56
2022/11/22 06:56:19;;;;;;;1.53;0.63;;;;;;;7.75;100.00;98403.69;5039233;28;20492;-55
2022/11/22 06:58:47;;;;;;;0.50;0.40;;;;;;;7.74;100.00;98402.84;5043427;28;20440;-54
2022/11/22 07:01:18;;;;;;;0.60;0.40;;;;;;;7.79;100.00;98411.38;5033371;28;20460;-55
2022/11/22 07:03:46;;;;;;;0.63;0.63;;;;;;;7.81;100.00;98420.13;5041786;28;20470;-55
2022/11/22 07:06:14;;;;;;;0.50;0.43;;;;;;;7.65;100.00;98419.13;5039232;28;20467;-55
2022/11/22 07:08:42;;;;;;;4.20;0.50;;;;;;;7.54;100.00;98426.69;5043204;28;20460;-54
2022/11/22 07:11:14;;;;;;;0.80;0.80;;;;;;;7.56;100.00;98430.16;5042208;28;20461;-55
2022/11/22 07:13:41;;;;;;;0.30;0.20;;;;;;;7.55;100.00;98431.06;5036326;28;20463;-55
2022/11/22 07:16:10;;;;;;;0.80;0.67;;;;;;;7.56;100.00;98435.44;5036956;28;20487;-55
2022/11/22 07:18:37;;;;;;;0.30;0.30;;;;;;;7.62;100.00;98436.00;5043011;28;20459;-55
2022/11/22 07:21:18;;;;;;;5.33;1.53;;;;;;;7.63;100.00;98442.13;5042736;28;20524;-56
2022/11/22 07:23:46;;;;;;;2.03;1.90;;;;;;;7.66;100.00;98428.78;5041210;28;21040;-56
2022/11/22 07:26:14;;;;;;;1.23;1.23;;;;;;;7.65;100.00;98435.84;5042787;28;20863;-55
2022/11/22 07:28:40;;;;;;;1.00;0.97;;;;;;;7.60;100.00;98442.28;5038377;28;20454;-55
2022/11/22 07:31:09;;;;;;;0.60;0.57;;;;;;;7.70;100.00;98462.09;5035688;28;21008;-56
2022/11/22 07:33:35;;;;;;;1.30;0.40;;;;;;;7.65;100.00;98456.13;5040118;28;20456;-56
2022/11/22 07:36:07;;;;;;;1.03;1.03;;;;;;;7.72;100.00;98447.00;5042841;28;20494;-56
2022/11/22 07:38:34;;;;;;;0.87;0.87;;;;;;;7.73;100.00;98441.66;5021697;28;20891;-56
2022/11/22 07:41:01;;;;;;;0.40;0.20;;;;;;;7.78;100.00;98444.06;5035730;28;20450;-56
2022/11/22 07:43:28;;;;;;;3.50;0.73;;;;;;;7.82;100.00;98447.44;5021452;28;20869;-55
2022/11/22 07:45:58;;;;;;;0.50;0.40;;;;;;;7.72;100.00;98452.28;5042683;28;20451;-56
2022/11/22 07:48:25;;;;;;;0.50;0.50;;;;;;;7.69;100.00;98447.16;5039523;28;20504;-56
2022/11/22 07:50:51;;;;;;;0.40;0.30;;;;;;;7.61;100.00;98455.44;5035928;28;20461;-56
2022/11/22 07:53:22;;;;;;;0.40;0.40;;;;;;;7.59;100.00;98467.88;5037859;28;20483;-55
2022/11/22 07:55:48;;;;;;;1.90;0.70;;;;;;;7.56;100.00;98470.66;5037790;28;20456;-56
2022/11/22 07:58:14;;;;;;;0.70;0.40;;;;;;;7.49;100.00;98461.28;5020511;28;20505;-56
2022/11/22 08:00:41;;;;;;;0.40;0.30;;;;;;;7.75;100.00;98475.09;5022491;28;20855;-56
2022/11/22 08:03:07;;;;;;;0.87;0.57;;;;;;;7.67;100.00;98478.06;5023807;28;20835;-56
2022/11/22 08:05:34;;;;;;;0.80;0.73;;;;;;;7.58;100.00;98482.03;5041887;28;20458;-56
2022/11/22 08:08:00;;;;;;;6.93;2.77;;;;;;;7.61;100.00;98483.66;5024886;28;20459;-56
2022/11/22 08:10:26;;;;;;;2.83;2.20;;;;;;;7.57;100.00;98482.94;5041566;28;20847;-56
2022/11/22 08:12:56;;;;;;;4.50;1.93;;;;;;;7.57;100.00;98488.25;5040995;28;20470;-56
2022/11/22 08:15:23;;;;;;;3.70;2.20;;;;;;;7.58;100.00;98491.75;5037023;28;20487;-56
2022/11/22 08:17:49;;;;;;;4.67;2.67;;;;;;;7.57;100.00;98490.03;5034993;28;20502;-56
2022/11/22 08:20:15;;;;;;;8.67;1.90;;;;;;;7.58;100.00;98491.75;5041177;28;20447;-55
2022/11/22 08:22:42;;;;;;;14.33;1.47;;;;;;;7.61;100.00;98495.09;5042140;28;20514;-56
2022/11/22 08:25:11;;;;;;;0.50;0.50;;;;;;;7.73;100.00;98504.25;5036504;28;20866;-56
2022/11/22 08:27:42;;;;;;;0.40;0.20;;;;;;;7.71;100.00;98498.19;5034867;28;20451;-56
2022/11/22 08:30:10;;;;;;;1.23;1.03;;;;;;;7.75;100.00;98490.97;5022022;28;20466;-56
2022/11/22 08:32:36;;;;;;;0.93;0.57;;;;;;;7.84;100.00;98487.91;5016858;28;20502;-55
2022/11/22 08:35:03;;;;;;;3.80;0.53;;;;;;;7.85;100.00;98492.25;5038123;28;20482;-55
2022/11/22 08:37:30;;;;;;;0.57;0.57;;;;;;;7.95;100.00;98501.50;5034869;28;20505;-54
2022/11/22 08:39:56;;;;;;;0.77;0.77;;;;;;;8.12;100.00;98509.47;5021454;28;20486;-54
2022/11/22 08:42:23;;;;;;;0.57;0.57;;;;;;;7.89;100.00;98507.91;5041482;28;20479;-54
2022/11/22 08:44:49;;;;;;;2.37;0.77;;;;;;;7.97;100.00;98512.84;5037675;28;20974;-54
2022/11/22 08:47:16;;;;;;;0.83;0.80;;;;;;;7.90;100.00;98517.56;5035067;28;20509;-54
2022/11/22 08:49:42;;;;;;;3.13;0.70;;;;;;;8.16;100.00;98534.00;5039231;28;20452;-54
2022/11/22 08:52:09;;;;;;;1.80;0.80;;;;;;;8.06;100.00;98530.91;5041649;28;20477;-54
2022/11/22 08:54:35;;;;;;;0.40;0.40;;;;;;;8.07;100.00;98529.13;5037626;28;20458;-54
2022/11/22 08:57:04;;;;;;;1.53;0.63;;;;;;;8.18;100.00;98533.00;5034124;28;20496;-54
2022/11/22 08:59:30;;;;;;;2.23;0.47;;;;;;;8.22;100.00;98536.34;5037817;28;20454;-54
2022/11/22 09:01:57;;;;;;;1.50;1.40;;;;;;;8.12;100.00;98535.09;5029648;28;20472;-54
2022/11/22 09:04:23;;;;;;;5.53;1.10;;;;;;;8.39;100.00;98527.66;5039164;28;20829;-54
2022/11/22 09:06:50;;;;;;;2.10;0.80;;;;;;;8.28;100.00;98530.78;5026472;28;20467;-54
2022/11/22 09:09:36;;;;;;;1.17;0.40;;;;;;;8.37;100.00;98532.19;5041260;28;20728;-54
2022/11/22 09:12:04;;;;;;;0.80;0.80;;;;;;;8.36;100.00;98523.38;5035816;28;20470;-54
2022/11/22 09:14:30;;;;;;;10.80;1.00;;;;;;;8.40;100.00;98526.72;5034463;28;20543;-54
2022/11/22 09:16:56;;;;;;;1.07;0.30;;;;;;;8.28;100.00;98521.06;5040408;28;21020;-54
2022/11/22 09:19:23;;;;;;;0.93;0.47;;;;;;;8.42;100.00;98520.41;5023083;28;20455;-54
2022/11/22 09:21:49;;;;;;;0.30;0.20;;;;;;;8.32;100.00;98512.03;5015621;28;20475;-54
2022/11/22 09:24:16;;;;;;;13.93;0.90;;;;;;;8.46;100.00;98521.97;5041567;28;20454;-54
2022/11/22 09:26:42;;;;;;;15.93;1.57;;;;;;;8.38;100.00;98520.66;5039530;28;20533;-54
2022/11/22 09:29:09;;;;;;;0.60;0.43;;;;;;;8.40;100.00;98526.72;5037934;28;20466;-54
2022/11/22 09:31:35;;;;;;;1.07;1.07;;;;;;;8.48;100.00;98529.84;5026084;28;20498;-54
2022/11/22 09:34:02;;;;;;;4.83;0.50;;;;;;;8.54;100.00;98529.56;5045123;28;20453;-54
2022/11/22 09:36:29;;;;;;;0.40;0.40;;;;;;;8.48;100.00;98529.84;5038933;28;20495;-54
2022/11/22 09:38:56;;;;;;;0.47;0.23;;;;;;;8.55;100.00;98521.53;5038133;28;20975;-54
2022/11/22 09:41:22;;;;;;;0.57;0.57;;;;;;;8.67;100.00;98524.53;5043112;28;21074;-54
2022/11/22 09:44:07;;;;;;;0.97;0.97;;;;;;;8.77;99.61;98513.41;5044616;28;20462;-54
2022/11/22 09:47:06;;;;;;;0.40;0.30;;;;;;;8.67;100.00;98521.88;5042192;28;20930;-54
2022/11/22 09:49:35;;;;;;;0.47;0.47;;;;;;;8.79;99.60;98502.72;5010942;28;20961;-54
2022/11/22 09:52:05;;;;;;;0.40;0.40;;;;;;;8.79;100.00;98495.63;5037685;28;20475;-54
2022/11/22 09:54:47;;;;;;;0.50;0.30;;;;;;;8.95;100.00;98500.16;5041858;28;20529;-54
2022/11/22 09:57:33;;;;;;;1.07;1.07;;;;;;;9.14;99.88;98501.78;5044287;28;21024;-54
2022/11/22 10:00:20;;;;;;;6.60;0.93;;;;;;;8.97;99.35;98507.09;5044292;28;20443;-55
2022/11/22 10:03:03;;;;;;;0.30;0.30;;;;;;;9.05;98.24;98510.22;5041736;28;20477;-54
2022/11/22 10:05:53;;;;;;;0.60;0.47;;;;;;;8.98;98.24;98510.59;5037494;28;20532;-55
2022/11/22 10:08:42;;;;;;;3.50;1.13;;;;;;;9.06;98.80;98503.97;5040756;28;20455;-54
2022/11/22 10:11:24;;;;;;;0.93;0.80;;;;;;;9.03;99.19;98497.94;5043404;28;20450;-55
2022/11/22 10:13:57;;;;;;;3.40;0.57;;;;;;;8.96;99.42;98493.91;5042510;28;21012;-54
2022/11/22 10:16:53;;;;;;;0.53;0.53;;;;;;;9.02;99.09;98497.09;5044094;28;20452;-54
2022/11/22 10:19:33;;;;;;;10.30;0.57;;;;;;;8.94;99.03;98487.84;4983467;28;20981;-56
2022/11/22 10:21:59;;;;;;;0.87;0.53;;;;;;;8.97;99.39;98488.53;5041554;28;20468;-55
2022/11/22 10:24:27;;;;;;;0.77;0.73;;;;;;;9.03;99.12;98476.75;5043710;28;20455;-55
2022/11/22 10:26:57;;;;;;;11.23;3.03;;;;;;;8.84;99.55;98480.34;5040287;28;20486;-55
2022/11/22 10:29:42;;;;;;;0.37;0.30;;;;;;;9.10;98.98;98478.16;5036946;28;20998;-55
2022/11/22 10:32:32;;;;;;;0.60;0.60;;;;;;;8.94;99.25;98470.16;5037635;28;20479;-55
2022/11/22 10:35:08;;;;;;;14.87;1.10;;;;;;;8.99;98.85;98457.50;5029504;28;20553;-55
2022/11/22 10:37:41;;;;;;;1.40;0.73;;;;;;;9.13;98.73;98449.69;5036027;28;20524;-55
2022/11/22 10:40:20;;;;;;;3.07;0.40;;;;;;;9.23;98.93;98460.69;5038744;28;20991;-55
2022/11/22 10:43:01;;;;;;;1.27;0.60;;;;;;;9.49;97.92;98460.16;5036966;28;20954;-55
2022/11/22 10:45:47;;;;;;;14.73;0.50;;;;;;;9.65;96.80;98459.34;5036673;28;20455;-55
2022/11/22 10:48:28;;;;;;;0.50;0.47;;;;;;;9.43;96.39;98464.94;5038841;28;20877;-55
2022/11/22 10:51:19;;;;;;;0.30;0.20;;;;;;;9.38;97.52;98466.97;5024495;28;20450;-56
2022/11/22 10:54:04;;;;;;;0.77;0.60;;;;;;;9.53;97.40;98466.16;5036349;28;20497;-55
2022/11/22 10:57:00;;;;;;;0.30;0.20;;;;;;;9.53;96.22;98470.59;5036971;28;21062;-55
2022/11/22 10:59:33;;;;;;;1.90;1.00;;;;;;;9.66;96.39;98469.84;5020835;28;20456;-55
2022/11/22 11:02:31;;;;;;;3.50;0.60;;;;;;;9.64;95.19;98471.75;5031280;28;20562;-55
2022/11/22 11:04:59;;;;;;;1.13;0.30;;;;;;;9.72;94.75;98479.28;5043517;28;20500;-55
2022/11/22 11:07:26;;;;;;;4.17;1.20;;;;;;;9.94;94.42;98476.31;5025228;28;20462;-55
2022/11/22 11:10:01;;;;;;;5.30;0.40;;;;;;;9.96;94.43;98474.41;5043039;28;20880;-55
2022/11/22 11:12:45;;;;;;;2.40;1.43;;;;;;;9.87;93.89;98465.19;5041164;28;20477;-55
2022/11/22 11:15:17;;;;;;;0.40;0.40;;;;;;;9.98;93.28;98462.78;5036311;28;20874;-55
2022/11/22 11:17:47;;;;;;;0.40;0.20;;;;;;;10.04;92.89;98465.09;5036389;28;20488;-55
2022/11/22 11:20:30;;;;;;;0.30;0.20;;;;;;;9.71;93.34;98465.16;5023950;28;21011;-55
2022/11/22 11:22:57;;;;;;;5.93;0.40;;;;;;;9.75;93.29;98464.06;5036463;28;21536;-55
2022/11/22 11:25:42;;;;;;;0.70;0.40;;;;;;;9.85;94.56;98467.03;5038047;28;20447;-55
2022/11/22 11:28:22;;;;;;;8.70;0.97;;;;;;;9.66;94.30;98466.34;5042567;28;21150;-55
2022/11/22 11:30:51;;;;;;;0.60;0.60;;;;;;;9.80;93.78;98472.63;5042859;28;20500;-54
2022/11/22 11:33:33;;;;;;;0.30;0.20;;;;;;;9.54;94.96;98470.50;5036564;28;20844;-54
2022/11/22 11:36:11;;;;;;;0.30;0.20;;;;;;;9.62;94.99;98467.47;5036004;28;20804;-55
2022/11/22 11:38:56;;;;;;;0.60;0.57;;;;;;;9.74;95.44;98466.81;5037850;28;20490;-55
2022/11/22 11:41:31;;;;;;;1.90;0.30;;;;;;;9.68;94.60;98469.78;5024356;28;20478;-54
2022/11/22 11:43:59;;;;;;;1.43;0.70;;;;;;;9.72;94.21;98463.34;5035573;28;20451;-55
2022/11/22 11:46:28;;;;;;;0.50;0.50;;;;;;;9.52;94.76;98459.13;5040424;28;20562;-55
2022/11/22 11:49:09;;;;;;;0.40;0.30;;;;;;;9.49;94.77;98462.81;5042287;28;20451;-54
2022/11/22 11:51:42;;;;;;;0.53;0.40;;;;;;;9.47;93.54;98453.22;5039959;28;20470;-54
2022/11/22 11:54:19;;;;;;;1.80;1.03;;;;;;;9.53;94.10;98466.16;5035261;28;20911;-54
2022/11/22 11:56:48;;;;;;;6.07;0.87;;;;;;;9.60;95.75;98458.75;5049145;28;20833;-54
2022/11/22 11:59:18;;;;;;;1.57;1.40;;;;;;;9.33;95.26;98461.06;5040555;28;20448;-55
2022/11/22 12:02:14;;;;;;;0.60;0.60;;;;;;;9.44;95.74;98450.72;5030407;28;20479;-55
2022/11/22 12:04:46;;;;;;;1.10;0.77;;;;;;;9.53;95.12;98457.34;5041823;28;20506;-55
2022/11/22 12:07:26;;;;;;;2.83;1.40;;;;;;;9.49;94.58;98451.34;5020558;28;21280;-55